createdAt,value
2022-10-19T00:00:24.736Z,17
2022-10-19T00:15:24.321Z,11
2022-10-19T00:30:24.374Z,23
2022-10-19T00:45:24.319Z,20
2022-10-19T01:00:23.914Z,29
2022-10-19T01:15:23.919Z,16
2022-10-19T01:30:23.842Z,24
2022-10-19T01:45:24.614Z,27
2022-10-19T02:00:24.550Z,33
2022-10-19T02:15:24.275Z,29
2022-10-19T02:30:24.271Z,32
2022-10-19T02:45:24.189Z,31
2022-10-19T03:00:24.299Z,27
2022-10-19T03:15:24.040Z,23
2022-10-19T03:30:24.228Z,19
2022-10-19T03:45:24.063Z,20
2022-10-19T04:00:24.172Z,20
2022-10-19T04:15:24.837Z,19
2022-10-19T04:30:24.424Z,25
2022-10-19T04:45:24.285Z,26
2022-10-19T05:00:24.125Z,23
2022-10-19T05:15:23.901Z,20
2022-10-19T05:30:24.551Z,30
2022-10-19T05:45:23.890Z,38
2022-10-19T06:00:24.320Z,25
2022-10-19T06:15:24.361Z,29
2022-10-19T06:30:24.607Z,32
2022-10-19T06:45:24.275Z,30
2022-10-19T07:00:24.098Z,36
2022-10-19T07:15:24.236Z,38
2022-10-19T07:30:24.154Z,28
2022-10-19T07:45:24.144Z,27
2022-10-19T08:00:24.437Z,22
2022-10-19T08:15:24.464Z,13
2022-10-19T08:30:24.420Z,13
2022-10-19T08:45:24.260Z,9
2022-10-19T09:00:24.640Z,16
2022-10-19T09:15:24.882Z,13
2022-10-19T09:30:24.869Z,15
2022-10-19T09:45:24.048Z,9
2022-10-19T10:00:24.596Z,13
2022-10-19T10:15:24.127Z,12
2022-10-19T10:30:24.240Z,15
2022-10-19T10:45:24.244Z,13
2022-10-19T11:00:24.261Z,13
2022-10-19T11:15:24.640Z,15
2022-10-19T11:30:24.146Z,8
2022-10-19T11:45:23.975Z,9
2022-10-19T12:00:38.931Z,6
2022-10-19T12:15:23.858Z,11
2022-10-19T12:30:24.655Z,14
2022-10-19T12:45:24.643Z,9
2022-10-19T13:00:24.799Z,9
2022-10-19T13:15:23.882Z,6
2022-10-19T13:30:24.139Z,7
2022-10-19T13:45:23.932Z,6
2022-10-19T14:00:24.540Z,6
2022-10-19T14:15:24.131Z,6
2022-10-19T14:30:24.224Z,4
2022-10-19T14:45:24.480Z,4
2022-10-19T15:00:27.410Z,11
2022-10-19T15:15:24.832Z,6
2022-10-19T15:30:23.774Z,8
2022-10-19T15:45:24.465Z,12
2022-10-19T16:00:24.541Z,12
2022-10-19T16:15:24.159Z,13
2022-10-19T16:30:23.791Z,17
2022-10-19T16:45:24.513Z,15
2022-10-19T17:00:24.104Z,31
2022-10-19T17:15:43.170Z,36
2022-10-19T17:30:24.458Z,16
2022-10-19T17:45:24.342Z,10
2022-10-19T18:00:24.791Z,11
2022-10-19T18:15:24.547Z,15
2022-10-19T18:30:24.490Z,9
2022-10-19T18:45:24.538Z,8
2022-10-19T19:00:24.674Z,11
2022-10-19T19:15:24.508Z,9
2022-10-19T19:30:24.491Z,7
2022-10-19T19:45:24.837Z,7
2022-10-19T20:00:25.001Z,15
2022-10-19T20:15:24.244Z,10
2022-10-19T20:30:24.194Z,10
2022-10-19T20:45:24.071Z,11
2022-10-19T21:00:24.202Z,19
2022-10-19T21:15:24.557Z,15
2022-10-19T21:30:24.637Z,17
2022-10-19T21:45:31.021Z,22
2022-10-19T22:00:24.506Z,15
2022-10-19T22:15:24.759Z,21
2022-10-19T22:30:24.999Z,21
2022-10-19T22:45:23.843Z,20
2022-10-19T23:00:23.823Z,20
2022-10-19T23:15:24.102Z,18
2022-10-19T23:30:24.209Z,24
2022-10-19T23:45:24.037Z,17
